sensor_id;sensor_type;location;lat;lon;timestamp;temperature;humidity
21805;DHT22;11064;47.102;15.452;2023-05-06T00:00:59;13.30;99.90
21805;DHT22;11064;47.102;15.452;2023-05-06T00:03:25;13.00;99.90
21805;DHT22;11064;47.102;15.452;2023-05-06T00:05:51;12.80;99.90
21805;DHT22;11064;47.102;15.452;2023-05-06T00:08:17;12.50;99.90
21805;DHT22;11064;47.102;15.452;2023-05-06T00:10:43;12.40;99.90
21805;DHT22;11064;47.102;15.452;2023-05-06T00:13:09;12.20;99.90
21805;DHT22;11064;47.102;15.452;2023-05-06T00:15:35;12.00;99.90
21805;DHT22;11064;47.102;15.452;2023-05-06T00:18:01;12.00;99.90
21805;DHT22;11064;47.102;15.452;2023-05-06T00:20:27;12.00;99.90
21805;DHT22;11064;47.102;15.452;2023-05-06T00:22:54;12.00;99.90
21805;DHT22;11064;47.102;15.452;2023-05-06T00:25:20;11.90;99.90
21805;DHT22;11064;47.102;15.452;2023-05-06T00:27:45;11.80;99.90
21805;DHT22;11064;47.102;15.452;2023-05-06T00:30:11;11.70;99.90
21805;DHT22;11064;47.102;15.452;2023-05-06T00:32:37;11.70;99.90
21805;DHT22;11064;47.102;15.452;2023-05-06T00:35:03;11.70;99.90
21805;DHT22;11064;47.102;15.452;2023-05-06T00:37:29;11.70;99.90
21805;DHT22;11064;47.102;15.452;2023-05-06T00:39:55;11.70;99.90
21805;DHT22;11064;47.102;15.452;2023-05-06T00:42:21;11.60;99.90
21805;DHT22;11064;47.102;15.452;2023-05-06T00:44:48;11.70;99.90
21805;DHT22;11064;47.102;15.452;2023-05-06T00:47:14;11.60;99.90
21805;DHT22;11064;47.102;15.452;2023-05-06T00:49:42;11.60;99.90
21805;DHT22;11064;47.102;15.452;2023-05-06T00:52:07;11.60;99.90
21805;DHT22;11064;47.102;15.452;2023-05-06T00:54:34;11.60;99.90
21805;DHT22;11064;47.102;15.452;2023-05-06T00:57:00;11.60;99.90
21805;DHT22;11064;47.102;15.452;2023-05-06T00:59:27;11.60;99.90
21805;DHT22;11064;47.102;15.452;2023-05-06T01:01:53;11.60;99.90
21805;DHT22;11064;47.102;15.452;2023-05-06T01:04:20;11.60;99.90
21805;DHT22;11064;47.102;15.452;2023-05-06T01:09:46;11.60;99.90
21805;DHT22;11064;47.102;15.452;2023-05-06T01:12:28;11.60;99.90
21805;DHT22;11064;47.102;15.452;2023-05-06T01:15:07;11.70;99.90
21805;DHT22;11064;47.102;15.452;2023-05-06T01:17:42;11.70;99.90
21805;DHT22;11064;47.102;15.452;2023-05-06T01:20:10;11.80;99.90
21805;DHT22;11064;47.102;15.452;2023-05-06T01:22:37;11.70;99.90
21805;DHT22;11064;47.102;15.452;2023-05-06T01:25:04;11.60;99.90
21805;DHT22;11064;47.102;15.452;2023-05-06T01:27:30;11.50;99.90
21805;DHT22;11064;47.102;15.452;2023-05-06T01:29:56;11.50;99.90
21805;DHT22;11064;47.102;15.452;2023-05-06T01:35:46;11.40;99.90
21805;DHT22;11064;47.102;15.452;2023-05-06T01:41:15;11.50;99.90
21805;DHT22;11064;47.102;15.452;2023-05-06T01:43:43;11.50;99.90
21805;DHT22;11064;47.102;15.452;2023-05-06T01:46:14;11.50;99.90
21805;DHT22;11064;47.102;15.452;2023-05-06T01:48:48;11.60;99.90
21805;DHT22;11064;47.102;15.452;2023-05-06T01:51:14;11.80;99.90
21805;DHT22;11064;47.102;15.452;2023-05-06T01:53:40;12.00;99.90
21805;DHT22;11064;47.102;15.452;2023-05-06T01:56:06;12.00;99.90
21805;DHT22;11064;47.102;15.452;2023-05-06T01:58:32;12.10;99.90
21805;DHT22;11064;47.102;15.452;2023-05-06T02:00:58;12.20;99.90
21805;DHT22;11064;47.102;15.452;2023-05-06T02:03:24;12.20;99.90
21805;DHT22;11064;47.102;15.452;2023-05-06T02:05:50;12.20;99.90
21805;DHT22;11064;47.102;15.452;2023-05-06T02:08:15;12.30;99.90
21805;DHT22;11064;47.102;15.452;2023-05-06T02:10:41;12.30;99.90
21805;DHT22;11064;47.102;15.452;2023-05-06T02:13:07;12.30;99.90
21805;DHT22;11064;47.102;15.452;2023-05-06T02:15:33;12.30;99.90
21805;DHT22;11064;47.102;15.452;2023-05-06T02:17:59;12.30;99.90
21805;DHT22;11064;47.102;15.452;2023-05-06T02:20:25;12.40;99.90
21805;DHT22;11064;47.102;15.452;2023-05-06T02:22:50;12.40;99.90
21805;DHT22;11064;47.102;15.452;2023-05-06T02:25:16;12.40;99.90
21805;DHT22;11064;47.102;15.452;2023-05-06T02:27:42;12.30;99.90
21805;DHT22;11064;47.102;15.452;2023-05-06T02:30:10;12.40;99.90
21805;DHT22;11064;47.102;15.452;2023-05-06T02:32:36;12.40;99.90
21805;DHT22;11064;47.102;15.452;2023-05-06T02:35:02;12.50;99.90
21805;DHT22;11064;47.102;15.452;2023-05-06T02:37:28;12.40;99.90
21805;DHT22;11064;47.102;15.452;2023-05-06T02:39:54;12.30;99.90
21805;DHT22;11064;47.102;15.452;2023-05-06T02:42:20;12.30;99.90
21805;DHT22;11064;47.102;15.452;2023-05-06T02:44:46;12.20;99.90
21805;DHT22;11064;47.102;15.452;2023-05-06T02:47:12;12.10;99.90
21805;DHT22;11064;47.102;15.452;2023-05-06T02:49:37;12.10;99.90
21805;DHT22;11064;47.102;15.452;2023-05-06T02:52:03;12.10;99.90
21805;DHT22;11064;47.102;15.452;2023-05-06T02:54:29;12.10;99.90
21805;DHT22;11064;47.102;15.452;2023-05-06T02:56:55;12.10;99.90
21805;DHT22;11064;47.102;15.452;2023-05-06T02:59:21;12.00;99.90
21805;DHT22;11064;47.102;15.452;2023-05-06T03:01:47;12.00;99.90
21805;DHT22;11064;47.102;15.452;2023-05-06T03:04:13;12.00;99.90
21805;DHT22;11064;47.102;15.452;2023-05-06T03:06:38;12.10;99.90
21805;DHT22;11064;47.102;15.452;2023-05-06T03:09:04;12.00;99.90
21805;DHT22;11064;47.102;15.452;2023-05-06T03:11:31;12.00;99.90
21805;DHT22;11064;47.102;15.452;2023-05-06T03:13:57;12.00;99.90
21805;DHT22;11064;47.102;15.452;2023-05-06T03:16:23;12.00;99.90
21805;DHT22;11064;47.102;15.452;2023-05-06T03:18:49;11.90;99.90
21805;DHT22;11064;47.102;15.452;2023-05-06T03:21:15;11.70;99.90
21805;DHT22;11064;47.102;15.452;2023-05-06T03:23:41;11.70;99.90
21805;DHT22;11064;47.102;15.452;2023-05-06T03:26:06;11.60;99.90
21805;DHT22;11064;47.102;15.452;2023-05-06T03:28:32;11.60;99.90
21805;DHT22;11064;47.102;15.452;2023-05-06T03:30:58;11.50;99.90
21805;DHT22;11064;47.102;15.452;2023-05-06T03:33:24;11.50;99.90
21805;DHT22;11064;47.102;15.452;2023-05-06T03:35:50;11.50;99.90
21805;DHT22;11064;47.102;15.452;2023-05-06T03:38:15;11.50;99.90
21805;DHT22;11064;47.102;15.452;2023-05-06T03:40:41;11.30;99.90
21805;DHT22;11064;47.102;15.452;2023-05-06T03:43:07;11.20;99.90
21805;DHT22;11064;47.102;15.452;2023-05-06T03:45:33;11.20;99.90
21805;DHT22;11064;47.102;15.452;2023-05-06T03:47:59;11.10;99.90
21805;DHT22;11064;47.102;15.452;2023-05-06T03:50:24;11.00;99.90
21805;DHT22;11064;47.102;15.452;2023-05-06T03:52:50;11.00;99.90
21805;DHT22;11064;47.102;15.452;2023-05-06T03:55:16;11.00;99.90
21805;DHT22;11064;47.102;15.452;2023-05-06T03:57:42;10.90;99.90
21805;DHT22;11064;47.102;15.452;2023-05-06T04:00:08;11.00;99.90
21805;DHT22;11064;47.102;15.452;2023-05-06T04:02:34;11.00;99.90
21805;DHT22;11064;47.102;15.452;2023-05-06T04:05:01;11.00;99.90
21805;DHT22;11064;47.102;15.452;2023-05-06T04:07:28;11.10;99.90
21805;DHT22;11064;47.102;15.452;2023-05-06T04:09:54;11.40;99.90
21805;DHT22;11064;47.102;15.452;2023-05-06T04:12:20;11.50;99.90
21805;DHT22;11064;47.102;15.452;2023-05-06T04:14:47;11.60;99.90
21805;DHT22;11064;47.102;15.452;2023-05-06T04:17:13;11.60;99.90
21805;DHT22;11064;47.102;15.452;2023-05-06T04:19:38;11.70;99.90
21805;DHT22;11064;47.102;15.452;2023-05-06T04:22:04;11.80;99.90
21805;DHT22;11064;47.102;15.452;2023-05-06T04:24:30;11.90;99.90
21805;DHT22;11064;47.102;15.452;2023-05-06T04:26:56;12.00;99.90
21805;DHT22;11064;47.102;15.452;2023-05-06T04:29:22;12.20;99.90
21805;DHT22;11064;47.102;15.452;2023-05-06T04:31:48;12.30;99.90
21805;DHT22;11064;47.102;15.452;2023-05-06T04:34:13;12.40;99.90
21805;DHT22;11064;47.102;15.452;2023-05-06T04:36:41;12.60;99.90
21805;DHT22;11064;47.102;15.452;2023-05-06T04:39:07;12.70;99.90
21805;DHT22;11064;47.102;15.452;2023-05-06T04:41:35;12.80;99.90
21805;DHT22;11064;47.102;15.452;2023-05-06T04:44:01;13.00;99.90
21805;DHT22;11064;47.102;15.452;2023-05-06T05:02:01;14.40;99.90
21805;DHT22;11064;47.102;15.452;2023-05-06T05:04:27;14.80;99.90
21805;DHT22;11064;47.102;15.452;2023-05-06T05:06:53;15.20;99.90
21805;DHT22;11064;47.102;15.452;2023-05-06T05:09:18;16.00;99.90
21805;DHT22;11064;47.102;15.452;2023-05-06T05:11:44;17.30;99.90
21805;DHT22;11064;47.102;15.452;2023-05-06T05:14:10;18.90;99.90
21805;DHT22;11064;47.102;15.452;2023-05-06T05:16:36;20.00;95.90
21805;DHT22;11064;47.102;15.452;2023-05-06T05:19:02;20.00;93.40
21805;DHT22;11064;47.102;15.452;2023-05-06T05:21:27;19.60;94.10
21805;DHT22;11064;47.102;15.452;2023-05-06T05:23:53;18.80;95.60
21805;DHT22;11064;47.102;15.452;2023-05-06T05:26:19;18.20;97.30
21805;DHT22;11064;47.102;15.452;2023-05-06T05:28:44;17.80;98.50
21805;DHT22;11064;47.102;15.452;2023-05-06T05:31:10;17.40;99.70
21805;DHT22;11064;47.102;15.452;2023-05-06T05:33:36;17.00;99.90
21805;DHT22;11064;47.102;15.452;2023-05-06T05:36:03;16.80;99.90
21805;DHT22;11064;47.102;15.452;2023-05-06T05:38:29;16.60;99.90
21805;DHT22;11064;47.102;15.452;2023-05-06T05:40:54;16.40;99.90
21805;DHT22;11064;47.102;15.452;2023-05-06T05:43:20;16.20;99.90
21805;DHT22;11064;47.102;15.452;2023-05-06T05:45:48;16.10;99.90
21805;DHT22;11064;47.102;15.452;2023-05-06T05:48:14;15.90;99.90
21805;DHT22;11064;47.102;15.452;2023-05-06T05:50:39;15.90;99.90
21805;DHT22;11064;47.102;15.452;2023-05-06T05:53:07;15.90;99.90
21805;DHT22;11064;47.102;15.452;2023-05-06T05:55:33;16.10;99.90
21805;DHT22;11064;47.102;15.452;2023-05-06T05:57:58;16.40;99.90
21805;DHT22;11064;47.102;15.452;2023-05-06T06:00:24;16.70;99.90
21805;DHT22;11064;47.102;15.452;2023-05-06T06:02:50;17.00;99.90
21805;DHT22;11064;47.102;15.452;2023-05-06T06:05:16;17.10;99.90
21805;DHT22;11064;47.102;15.452;2023-05-06T06:07:41;17.30;99.90
21805;DHT22;11064;47.102;15.452;2023-05-06T06:10:07;17.40;99.90
21805;DHT22;11064;47.102;15.452;2023-05-06T06:12:33;17.40;99.90
21805;DHT22;11064;47.102;15.452;2023-05-06T06:14:59;17.40;99.90
21805;DHT22;11064;47.102;15.452;2023-05-06T06:17:25;17.30;99.90
21805;DHT22;11064;47.102;15.452;2023-05-06T06:19:50;17.40;99.90
21805;DHT22;11064;47.102;15.452;2023-05-06T06:22:22;17.50;99.90
21805;DHT22;11064;47.102;15.452;2023-05-06T06:24:48;17.70;99.90
21805;DHT22;11064;47.102;15.452;2023-05-06T06:27:13;17.80;99.90
21805;DHT22;11064;47.102;15.452;2023-05-06T06:29:39;17.60;99.90
21805;DHT22;11064;47.102;15.452;2023-05-06T06:32:05;17.50;99.90
21805;DHT22;11064;47.102;15.452;2023-05-06T06:34:31;17.40;99.90
21805;DHT22;11064;47.102;15.452;2023-05-06T06:36:56;17.50;99.90
21805;DHT22;11064;47.102;15.452;2023-05-06T06:39:22;17.60;99.90
21805;DHT22;11064;47.102;15.452;2023-05-06T06:41:48;17.90;99.90
21805;DHT22;11064;47.102;15.452;2023-05-06T06:44:14;18.10;99.10
21805;DHT22;11064;47.102;15.452;2023-05-06T06:46:39;18.50;97.90
21805;DHT22;11064;47.102;15.452;2023-05-06T06:49:06;18.60;97.60
21805;DHT22;11064;47.102;15.452;2023-05-06T06:51:32;19.00;96.80
21805;DHT22;11064;47.102;15.452;2023-05-06T06:53:57;19.20;96.50
21805;DHT22;11064;47.102;15.452;2023-05-06T06:56:23;19.40;95.40
21805;DHT22;11064;47.102;15.452;2023-05-06T06:58:49;19.90;94.40
21805;DHT22;11064;47.102;15.452;2023-05-06T07:01:15;20.20;93.30
21805;DHT22;11064;47.102;15.452;2023-05-06T07:03:40;20.40;92.20
21805;DHT22;11064;47.102;15.452;2023-05-06T07:06:07;20.70;91.80
21805;DHT22;11064;47.102;15.452;2023-05-06T07:08:33;20.80;92.00
21805;DHT22;11064;47.102;15.452;2023-05-06T07:10:59;20.80;92.30
21805;DHT22;11064;47.102;15.452;2023-05-06T07:13:25;20.70;92.70
21805;DHT22;11064;47.102;15.452;2023-05-06T07:15:51;20.80;91.50
21805;DHT22;11064;47.102;15.452;2023-05-06T07:18:17;20.40;92.50
21805;DHT22;11064;47.102;15.452;2023-05-06T07:20:43;20.30;93.30
21805;DHT22;11064;47.102;15.452;2023-05-06T07:23:08;20.50;92.40
21805;DHT22;11064;47.102;15.452;2023-05-06T07:25:34;20.30;91.30
21805;DHT22;11064;47.102;15.452;2023-05-06T07:28:00;20.10;92.10
21805;DHT22;11064;47.102;15.452;2023-05-06T07:30:26;20.40;91.90
21805;DHT22;11064;47.102;15.452;2023-05-06T07:32:51;20.50;91.60
21805;DHT22;11064;47.102;15.452;2023-05-06T07:35:17;20.80;91.10
21805;DHT22;11064;47.102;15.452;2023-05-06T07:37:45;21.00;90.60
21805;DHT22;11064;47.102;15.452;2023-05-06T07:40:11;20.80;91.10
21805;DHT22;11064;47.102;15.452;2023-05-06T07:42:37;20.70;92.20
21805;DHT22;11064;47.102;15.452;2023-05-06T07:45:04;20.60;93.00
21805;DHT22;11064;47.102;15.452;2023-05-06T07:47:31;20.40;93.40
21805;DHT22;11064;47.102;15.452;2023-05-06T07:49:58;20.40;93.40
21805;DHT22;11064;47.102;15.452;2023-05-06T07:52:24;20.60;94.20
21805;DHT22;11064;47.102;15.452;2023-05-06T07:54:50;20.50;94.40
21805;DHT22;11064;47.102;15.452;2023-05-06T07:57:16;20.20;93.20
21805;DHT22;11064;47.102;15.452;2023-05-06T07:59:43;20.00;92.10
21805;DHT22;11064;47.102;15.452;2023-05-06T08:02:09;20.10;92.80
21805;DHT22;11064;47.102;15.452;2023-05-06T08:04:35;20.00;93.10
21805;DHT22;11064;47.102;15.452;2023-05-06T08:07:01;20.20;93.30
21805;DHT22;11064;47.102;15.452;2023-05-06T08:09:26;20.30;94.00
21805;DHT22;11064;47.102;15.452;2023-05-06T08:11:52;20.50;93.10
21805;DHT22;11064;47.102;15.452;2023-05-06T08:14:18;20.20;92.50
21805;DHT22;11064;47.102;15.452;2023-05-06T08:16:44;20.60;92.90
21805;DHT22;11064;47.102;15.452;2023-05-06T08:19:09;21.00;93.00
21805;DHT22;11064;47.102;15.452;2023-05-06T08:21:35;21.30;90.90
21805;DHT22;11064;47.102;15.452;2023-05-06T08:24:01;21.10;89.90
21805;DHT22;11064;47.102;15.452;2023-05-06T08:26:27;21.30;90.40
21805;DHT22;11064;47.102;15.452;2023-05-06T08:28:53;21.30;90.70
21805;DHT22;11064;47.102;15.452;2023-05-06T08:31:20;21.90;91.10
21805;DHT22;11064;47.102;15.452;2023-05-06T08:33:46;22.00;89.70
21805;DHT22;11064;47.102;15.452;2023-05-06T08:36:12;22.00;86.10
21805;DHT22;11064;47.102;15.452;2023-05-06T08:38:38;22.30;87.80
21805;DHT22;11064;47.102;15.452;2023-05-06T08:41:10;22.20;86.20
21805;DHT22;11064;47.102;15.452;2023-05-06T08:43:40;22.40;85.50
21805;DHT22;11064;47.102;15.452;2023-05-06T08:46:09;22.30;85.60
21805;DHT22;11064;47.102;15.452;2023-05-06T08:48:34;22.10;86.70
21805;DHT22;11064;47.102;15.452;2023-05-06T08:51:02;22.00;86.10
21805;DHT22;11064;47.102;15.452;2023-05-06T08:53:29;22.10;86.50
21805;DHT22;11064;47.102;15.452;2023-05-06T08:55:57;22.30;85.30
21805;DHT22;11064;47.102;15.452;2023-05-06T08:58:26;22.50;82.70
21805;DHT22;11064;47.102;15.452;2023-05-06T09:00:52;23.00;80.90
21805;DHT22;11064;47.102;15.452;2023-05-06T09:03:18;23.50;80.20
21805;DHT22;11064;47.102;15.452;2023-05-06T09:05:43;23.90;78.80
21805;DHT22;11064;47.102;15.452;2023-05-06T09:08:09;24.30;76.40
21805;DHT22;11064;47.102;15.452;2023-05-06T09:10:45;24.60;73.90
21805;DHT22;11064;47.102;15.452;2023-05-06T09:13:13;24.90;68.50
21805;DHT22;11064;47.102;15.452;2023-05-06T09:15:41;24.90;72.30
21805;DHT22;11064;47.102;15.452;2023-05-06T09:18:07;25.10;69.20
21805;DHT22;11064;47.102;15.452;2023-05-06T09:20:34;25.00;67.60
21805;DHT22;11064;47.102;15.452;2023-05-06T09:23:01;25.40;67.40
21805;DHT22;11064;47.102;15.452;2023-05-06T09:25:28;25.70;65.80
21805;DHT22;11064;47.102;15.452;2023-05-06T09:28:07;26.10;66.60
21805;DHT22;11064;47.102;15.452;2023-05-06T09:30:32;25.50;63.00
21805;DHT22;11064;47.102;15.452;2023-05-06T09:33:01;25.80;64.90
21805;DHT22;11064;47.102;15.452;2023-05-06T09:35:41;26.20;62.20
21805;DHT22;11064;47.102;15.452;2023-05-06T09:38:08;26.30;63.60
21805;DHT22;11064;47.102;15.452;2023-05-06T09:40:35;26.50;60.10
21805;DHT22;11064;47.102;15.452;2023-05-06T09:43:02;27.10;56.10
21805;DHT22;11064;47.102;15.452;2023-05-06T09:45:29;27.60;56.00
21805;DHT22;11064;47.102;15.452;2023-05-06T09:47:56;28.00;56.50
21805;DHT22;11064;47.102;15.452;2023-05-06T09:50:23;27.00;55.00
21805;DHT22;11064;47.102;15.452;2023-05-06T09:52:49;27.30;56.40
21805;DHT22;11064;47.102;15.452;2023-05-06T09:55:19;27.40;57.70
21805;DHT22;11064;47.102;15.452;2023-05-06T09:57:46;27.30;57.10
21805;DHT22;11064;47.102;15.452;2023-05-06T10:00:13;27.40;56.70
21805;DHT22;11064;47.102;15.452;2023-05-06T10:02:40;27.30;59.50
21805;DHT22;11064;47.102;15.452;2023-05-06T10:05:08;27.80;55.40
21805;DHT22;11064;47.102;15.452;2023-05-06T10:07:35;27.60;57.80
21805;DHT22;11064;47.102;15.452;2023-05-06T10:10:02;27.10;57.10
21805;DHT22;11064;47.102;15.452;2023-05-06T10:12:29;27.00;56.60
21805;DHT22;11064;47.102;15.452;2023-05-06T10:14:55;26.90;57.50
21805;DHT22;11064;47.102;15.452;2023-05-06T10:17:24;26.60;56.60
21805;DHT22;11064;47.102;15.452;2023-05-06T10:19:54;26.70;58.80
21805;DHT22;11064;47.102;15.452;2023-05-06T10:28:06;26.20;58.10
21805;DHT22;11064;47.102;15.452;2023-05-06T10:30:33;26.40;58.00
21805;DHT22;11064;47.102;15.452;2023-05-06T10:33:06;26.30;58.00
21805;DHT22;11064;47.102;15.452;2023-05-06T10:35:56;26.00;58.90
21805;DHT22;11064;47.102;15.452;2023-05-06T10:38:36;25.50;59.50
21805;DHT22;11064;47.102;15.452;2023-05-06T10:41:07;25.00;59.20
21805;DHT22;11064;47.102;15.452;2023-05-06T10:43:38;25.30;61.50
21805;DHT22;11064;47.102;15.452;2023-05-06T10:46:13;25.70;59.70
21805;DHT22;11064;47.102;15.452;2023-05-06T10:51:29;25.70;59.50
21805;DHT22;11064;47.102;15.452;2023-05-06T10:54:02;26.30;57.20
21805;DHT22;11064;47.102;15.452;2023-05-06T10:56:34;26.70;55.40
21805;DHT22;11064;47.102;15.452;2023-05-06T10:59:10;26.90;56.50
21805;DHT22;11064;47.102;15.452;2023-05-06T11:01:51;26.50;56.30
21805;DHT22;11064;47.102;15.452;2023-05-06T11:04:19;26.50;56.20
21805;DHT22;11064;47.102;15.452;2023-05-06T11:06:49;26.80;57.20
21805;DHT22;11064;47.102;15.452;2023-05-06T11:12:00;26.90;53.70
21805;DHT22;11064;47.102;15.452;2023-05-06T11:14:35;26.80;53.90
21805;DHT22;11064;47.102;15.452;2023-05-06T11:17:08;26.50;56.20
21805;DHT22;11064;47.102;15.452;2023-05-06T11:19:35;26.80;57.70
21805;DHT22;11064;47.102;15.452;2023-05-06T11:22:03;27.00;56.50
21805;DHT22;11064;47.102;15.452;2023-05-06T11:24:42;26.40;55.20
21805;DHT22;11064;47.102;15.452;2023-05-06T11:27:09;26.50;56.20
21805;DHT22;11064;47.102;15.452;2023-05-06T11:29:35;26.80;57.30
21805;DHT22;11064;47.102;15.452;2023-05-06T11:32:02;27.00;54.80
21805;DHT22;11064;47.102;15.452;2023-05-06T11:34:31;27.20;56.00
21805;DHT22;11064;47.102;15.452;2023-05-06T11:37:00;27.60;55.00
21805;DHT22;11064;47.102;15.452;2023-05-06T11:39:28;27.80;53.50
21805;DHT22;11064;47.102;15.452;2023-05-06T11:42:02;28.00;52.60
21805;DHT22;11064;47.102;15.452;2023-05-06T11:44:30;27.90;52.60
21805;DHT22;11064;47.102;15.452;2023-05-06T11:46:57;27.50;52.20
21805;DHT22;11064;47.102;15.452;2023-05-06T11:49:24;27.20;53.20
21805;DHT22;11064;47.102;15.452;2023-05-06T11:51:51;26.90;54.70
21805;DHT22;11064;47.102;15.452;2023-05-06T11:54:17;26.50;52.70
21805;DHT22;11064;47.102;15.452;2023-05-06T11:56:52;26.70;52.90
21805;DHT22;11064;47.102;15.452;2023-05-06T11:59:33;26.50;52.70
21805;DHT22;11064;47.102;15.452;2023-05-06T12:02:01;26.10;52.30
21805;DHT22;11064;47.102;15.452;2023-05-06T12:04:35;25.60;53.10
21805;DHT22;11064;47.102;15.452;2023-05-06T12:07:01;25.50;53.50
21805;DHT22;11064;47.102;15.452;2023-05-06T12:09:29;25.40;54.60
21805;DHT22;11064;47.102;15.452;2023-05-06T12:11:55;25.40;56.00
21805;DHT22;11064;47.102;15.452;2023-05-06T12:14:21;25.40;56.30
21805;DHT22;11064;47.102;15.452;2023-05-06T12:16:47;25.80;54.60
21805;DHT22;11064;47.102;15.452;2023-05-06T12:19:16;26.30;53.50
21805;DHT22;11064;47.102;15.452;2023-05-06T12:21:43;26.80;51.80
21805;DHT22;11064;47.102;15.452;2023-05-06T12:24:09;27.20;50.60
21805;DHT22;11064;47.102;15.452;2023-05-06T12:26:47;27.50;50.30
21805;DHT22;11064;47.102;15.452;2023-05-06T12:29:15;27.60;49.50
21805;DHT22;11064;47.102;15.452;2023-05-06T12:31:44;27.50;51.70
21805;DHT22;11064;47.102;15.452;2023-05-06T12:34:17;27.20;50.40
21805;DHT22;11064;47.102;15.452;2023-05-06T12:36:46;27.10;51.30
21805;DHT22;11064;47.102;15.452;2023-05-06T12:39:12;27.10;53.00
21805;DHT22;11064;47.102;15.452;2023-05-06T12:41:43;27.50;52.50
21805;DHT22;11064;47.102;15.452;2023-05-06T12:44:37;27.60;53.50
21805;DHT22;11064;47.102;15.452;2023-05-06T12:47:08;27.50;53.10
21805;DHT22;11064;47.102;15.452;2023-05-06T12:49:56;26.70;54.40
21805;DHT22;11064;47.102;15.452;2023-05-06T12:52:23;27.10;56.50
21805;DHT22;11064;47.102;15.452;2023-05-06T12:54:50;26.40;56.00
21805;DHT22;11064;47.102;15.452;2023-05-06T12:57:19;27.00;55.20
21805;DHT22;11064;47.102;15.452;2023-05-06T12:59:45;27.10;54.60
21805;DHT22;11064;47.102;15.452;2023-05-06T13:02:12;27.20;54.30
21805;DHT22;11064;47.102;15.452;2023-05-06T13:04:38;26.80;55.80
21805;DHT22;11064;47.102;15.452;2023-05-06T13:07:04;26.40;55.20
21805;DHT22;11064;47.102;15.452;2023-05-06T13:09:30;25.90;56.80
21805;DHT22;11064;47.102;15.452;2023-05-06T13:11:57;25.60;57.40
21805;DHT22;11064;47.102;15.452;2023-05-06T13:14:23;25.00;59.50
21805;DHT22;11064;47.102;15.452;2023-05-06T13:16:49;24.50;59.70
21805;DHT22;11064;47.102;15.452;2023-05-06T13:19:15;24.20;60.50
21805;DHT22;11064;47.102;15.452;2023-05-06T13:21:41;24.20;60.90
21805;DHT22;11064;47.102;15.452;2023-05-06T13:24:07;23.80;63.20
21805;DHT22;11064;47.102;15.452;2023-05-06T13:26:34;23.90;61.60
21805;DHT22;11064;47.102;15.452;2023-05-06T13:29:00;24.10;60.60
21805;DHT22;11064;47.102;15.452;2023-05-06T13:31:27;24.50;59.40
21805;DHT22;11064;47.102;15.452;2023-05-06T13:33:54;25.20;57.80
21805;DHT22;11064;47.102;15.452;2023-05-06T13:36:21;25.10;58.80
21805;DHT22;11064;47.102;15.452;2023-05-06T13:38:47;25.50;57.20
21805;DHT22;11064;47.102;15.452;2023-05-06T13:41:12;25.50;57.70
21805;DHT22;11064;47.102;15.452;2023-05-06T13:43:38;25.60;57.90
21805;DHT22;11064;47.102;15.452;2023-05-06T13:46:04;26.20;56.80
21805;DHT22;11064;47.102;15.452;2023-05-06T13:48:30;26.10;56.00
21805;DHT22;11064;47.102;15.452;2023-05-06T13:50:55;26.50;54.70
21805;DHT22;11064;47.102;15.452;2023-05-06T13:53:21;27.10;52.40
21805;DHT22;11064;47.102;15.452;2023-05-06T13:55:47;27.10;52.60
21805;DHT22;11064;47.102;15.452;2023-05-06T13:58:13;26.40;53.40
21805;DHT22;11064;47.102;15.452;2023-05-06T14:00:39;26.40;55.50
21805;DHT22;11064;47.102;15.452;2023-05-06T14:03:04;26.00;54.10
21805;DHT22;11064;47.102;15.452;2023-05-06T14:05:31;25.80;55.80
21805;DHT22;11064;47.102;15.452;2023-05-06T14:07:57;25.90;55.00
21805;DHT22;11064;47.102;15.452;2023-05-06T14:10:23;25.60;54.60
21805;DHT22;11064;47.102;15.452;2023-05-06T14:12:48;25.70;56.20
21805;DHT22;11064;47.102;15.452;2023-05-06T14:15:14;26.00;56.90
21805;DHT22;11064;47.102;15.452;2023-05-06T14:17:40;26.10;56.90
21805;DHT22;11064;47.102;15.452;2023-05-06T14:20:07;26.20;57.30
21805;DHT22;11064;47.102;15.452;2023-05-06T14:22:34;26.70;57.10
21805;DHT22;11064;47.102;15.452;2023-05-06T14:25:01;26.70;54.70
21805;DHT22;11064;47.102;15.452;2023-05-06T14:27:26;27.30;55.80
21805;DHT22;11064;47.102;15.452;2023-05-06T14:29:52;27.20;55.20
21805;DHT22;11064;47.102;15.452;2023-05-06T14:32:18;26.40;55.00
21805;DHT22;11064;47.102;15.452;2023-05-06T14:34:44;26.60;56.30
21805;DHT22;11064;47.102;15.452;2023-05-06T14:37:10;26.50;56.00
21805;DHT22;11064;47.102;15.452;2023-05-06T14:39:35;26.70;57.30
21805;DHT22;11064;47.102;15.452;2023-05-06T14:42:01;26.70;57.40
21805;DHT22;11064;47.102;15.452;2023-05-06T14:44:27;27.00;57.00
21805;DHT22;11064;47.102;15.452;2023-05-06T14:46:53;27.00;56.60
21805;DHT22;11064;47.102;15.452;2023-05-06T14:49:18;26.50;55.40
21805;DHT22;11064;47.102;15.452;2023-05-06T14:51:45;26.80;56.10
21805;DHT22;11064;47.102;15.452;2023-05-06T14:54:15;26.60;54.10
21805;DHT22;11064;47.102;15.452;2023-05-06T14:56:41;26.80;55.20
21805;DHT22;11064;47.102;15.452;2023-05-06T14:59:10;26.80;54.20
21805;DHT22;11064;47.102;15.452;2023-05-06T15:01:35;26.60;53.90
21805;DHT22;11064;47.102;15.452;2023-05-06T15:04:01;26.50;54.70
21805;DHT22;11064;47.102;15.452;2023-05-06T15:06:27;26.80;54.90
21805;DHT22;11064;47.102;15.452;2023-05-06T15:08:52;26.60;54.60
21805;DHT22;11064;47.102;15.452;2023-05-06T15:11:18;26.30;54.70
21805;DHT22;11064;47.102;15.452;2023-05-06T15:13:44;26.00;54.70
21805;DHT22;11064;47.102;15.452;2023-05-06T15:16:10;25.20;55.70
21805;DHT22;11064;47.102;15.452;2023-05-06T15:18:35;25.00;56.30
21805;DHT22;11064;47.102;15.452;2023-05-06T15:21:02;24.80;57.30
21805;DHT22;11064;47.102;15.452;2023-05-06T15:23:29;24.90;56.40
21805;DHT22;11064;47.102;15.452;2023-05-06T15:26:10;25.00;57.70
21805;DHT22;11064;47.102;15.452;2023-05-06T15:28:36;24.70;56.70
21805;DHT22;11064;47.102;15.452;2023-05-06T15:31:02;24.50;59.80
21805;DHT22;11064;47.102;15.452;2023-05-06T15:33:28;24.10;59.10
21805;DHT22;11064;47.102;15.452;2023-05-06T15:35:53;23.60;59.70
21805;DHT22;11064;47.102;15.452;2023-05-06T15:38:19;22.90;62.10
21805;DHT22;11064;47.102;15.452;2023-05-06T15:40:49;22.20;65.40
21805;DHT22;11064;47.102;15.452;2023-05-06T15:43:15;21.60;69.60
21805;DHT22;11064;47.102;15.452;2023-05-06T15:45:41;21.00;72.50
21805;DHT22;11064;47.102;15.452;2023-05-06T15:48:07;20.60;74.90
21805;DHT22;11064;47.102;15.452;2023-05-06T15:50:35;20.40;77.40